createdAt,value
2019-01-05T00:00:31.277Z,0.00
2019-01-05T00:01:31.306Z,0.00
2019-01-05T00:02:52.090Z,0.00
2019-01-05T00:03:31.115Z,0.00
2019-01-05T00:04:30.941Z,0.00
2019-01-05T00:05:30.929Z,0.00
2019-01-05T00:06:30.770Z,0.00
2019-01-05T00:07:30.729Z,0.00
2019-01-05T00:08:51.585Z,0.00
2019-01-05T00:09:31.806Z,0.00
2019-01-05T00:10:30.443Z,0.00
2019-01-05T00:11:30.458Z,0.00
2019-01-05T00:12:30.271Z,0.00
2019-01-05T00:13:30.258Z,0.00
2019-01-05T00:14:51.082Z,0.00
2019-01-05T00:15:30.072Z,0.00
2019-01-05T00:16:29.935Z,0.00
2019-01-05T00:17:29.882Z,0.00
2019-01-05T00:18:29.764Z,0.00
2019-01-05T00:19:29.792Z,0.00
2019-01-05T00:20:50.579Z,0.00
2019-01-05T00:21:29.607Z,0.00
2019-01-05T00:22:29.434Z,0.00
2019-01-05T00:23:29.414Z,0.00
2019-01-05T00:24:29.266Z,0.00
2019-01-05T00:25:29.224Z,0.00
2019-01-05T00:26:50.076Z,0.00
2019-01-05T00:27:29.124Z,0.00
2019-01-05T00:28:28.929Z,0.00
2019-01-05T00:29:28.940Z,0.00
2019-01-05T00:30:28.765Z,0.00
2019-01-05T00:31:28.743Z,0.00
2019-01-05T00:32:49.582Z,0.00
2019-01-05T00:33:28.560Z,0.00
2019-01-05T00:34:28.430Z,0.00
2019-01-05T00:35:28.375Z,0.00
2019-01-05T00:36:28.273Z,0.00
2019-01-05T00:37:28.286Z,0.00
2019-01-05T00:38:49.076Z,0.00
2019-01-05T00:39:28.089Z,0.00
2019-01-05T00:40:27.929Z,0.00
2019-01-05T00:41:27.895Z,0.00
2019-01-05T00:42:27.765Z,0.00
2019-01-05T00:43:27.711Z,0.00
2019-01-05T00:44:48.571Z,0.00
2019-01-05T00:45:27.624Z,0.00
2019-01-05T00:46:27.420Z,0.00
2019-01-05T00:47:28.478Z,0.00
2019-01-05T00:48:27.256Z,0.00
2019-01-05T00:49:27.238Z,0.00
2019-01-05T00:50:48.067Z,0.00
2019-01-05T00:51:27.046Z,0.00
2019-01-05T00:52:26.920Z,0.00
2019-01-05T00:53:26.997Z,0.00
2019-01-05T00:54:26.750Z,0.00
2019-01-05T00:55:26.765Z,0.00
2019-01-05T00:56:47.567Z,0.00
2019-01-05T00:57:26.566Z,0.00
2019-01-05T00:58:26.417Z,0.00
2019-01-05T00:59:26.387Z,0.00
2019-01-05T01:00:26.254Z,0.00
2019-01-05T01:01:26.193Z,0.00
2019-01-05T01:02:47.091Z,0.00
2019-01-05T01:03:26.110Z,0.00
2019-01-05T01:04:25.914Z,0.00
2019-01-05T01:05:25.909Z,0.00
2019-01-05T01:06:25.744Z,0.00
2019-01-05T01:07:25.717Z,0.00
2019-01-05T01:08:46.562Z,0.00
2019-01-05T01:09:25.539Z,0.00
2019-01-05T01:10:25.416Z,0.00
2019-01-05T01:11:25.443Z,0.00
2019-01-05T01:12:25.254Z,0.00
2019-01-05T01:13:25.254Z,0.00
2019-01-05T01:14:46.063Z,0.00
2019-01-05T01:15:25.057Z,0.00
2019-01-05T01:16:24.910Z,0.00
2019-01-05T01:17:24.879Z,0.00
2019-01-05T01:18:24.746Z,0.00
2019-01-05T01:19:24.779Z,0.00
2019-01-05T01:20:45.554Z,0.00
2019-01-05T01:21:24.601Z,0.00
2019-01-05T01:22:24.406Z,0.00
2019-01-05T01:23:24.398Z,0.00
2019-01-05T01:24:24.248Z,0.00
2019-01-05T01:25:24.203Z,0.00
2019-01-05T01:26:45.048Z,0.00
2019-01-05T01:27:24.117Z,0.00
2019-01-05T01:28:23.905Z,0.00
2019-01-05T01:29:23.921Z,0.00
2019-01-05T01:30:23.738Z,0.00
2019-01-05T01:31:23.735Z,0.00
2019-01-05T01:32:44.559Z,0.00
2019-01-05T01:33:23.546Z,0.00
2019-01-05T01:34:23.405Z,0.00
2019-01-05T01:35:23.354Z,0.00
2019-01-05T01:36:23.241Z,0.00
2019-01-05T01:37:23.267Z,0.00
2019-01-05T01:38:44.046Z,0.00
2019-01-05T01:39:23.073Z,0.00
2019-01-05T01:40:22.907Z,0.00
2019-01-05T01:41:22.880Z,0.00
2019-01-05T01:42:22.731Z,0.00
2019-01-05T01:43:22.692Z,0.00
2019-01-05T01:44:43.547Z,0.00
2019-01-05T01:45:22.614Z,0.00
2019-01-05T01:46:22.401Z,0.00
2019-01-05T01:47:22.411Z,0.00
2019-01-05T01:48:22.239Z,0.00
2019-01-05T01:49:22.217Z,0.00
2019-01-05T01:50:43.048Z,0.00
2019-01-05T01:51:22.030Z,0.00
2019-01-05T01:52:21.899Z,0.00
2019-01-05T01:53:21.839Z,0.00
2019-01-05T01:54:21.727Z,0.00
2019-01-05T01:55:21.751Z,0.00
2019-01-05T01:56:42.545Z,0.00
2019-01-05T01:57:21.558Z,0.00
2019-01-05T01:58:21.402Z,0.00
2019-01-05T01:59:21.367Z,0.00
2019-01-05T02:00:21.230Z,0.00
2019-01-05T02:01:21.180Z,0.00
2019-01-05T02:02:42.039Z,0.00
2019-01-05T02:03:21.093Z,0.00
2019-01-05T02:04:20.897Z,0.00
2019-01-05T02:05:20.901Z,0.00
2019-01-05T02:06:20.737Z,0.00
2019-01-05T02:07:20.713Z,0.00
2019-01-05T02:08:41.538Z,0.00
2019-01-05T02:09:20.520Z,0.00
2019-01-05T02:10:20.392Z,0.00
2019-01-05T02:11:20.433Z,0.00
2019-01-05T02:12:20.230Z,0.00
2019-01-05T02:13:20.236Z,0.00
2019-01-05T02:14:41.037Z,0.00
2019-01-05T02:15:20.057Z,0.00
2019-01-05T02:16:19.892Z,0.00
2019-01-05T02:17:19.853Z,0.00
2019-01-05T02:18:19.723Z,0.00
2019-01-05T02:19:19.666Z,0.00
2019-01-05T02:20:40.547Z,0.00
2019-01-05T02:21:19.573Z,0.00
2019-01-05T02:22:19.405Z,0.00
2019-01-05T02:23:19.385Z,0.00
2019-01-05T02:24:19.225Z,0.00
2019-01-05T02:25:19.197Z,0.00
2019-01-05T02:26:40.036Z,0.00
2019-01-05T02:27:19.009Z,0.00
2019-01-05T02:28:18.892Z,0.00
2019-01-05T02:29:18.913Z,0.00
2019-01-05T02:30:18.719Z,0.00
2019-01-05T02:31:18.724Z,0.00
2019-01-05T02:32:39.533Z,0.00
2019-01-05T02:33:18.543Z,0.00
2019-01-05T02:34:18.406Z,0.00
2019-01-05T02:35:18.340Z,0.00
2019-01-05T02:36:18.223Z,0.00
2019-01-05T02:37:18.251Z,0.00
2019-01-05T02:38:39.033Z,0.00
2019-01-05T02:39:18.060Z,0.00
2019-01-05T02:40:17.886Z,0.00
2019-01-05T02:41:17.865Z,0.00
2019-01-05T02:42:17.721Z,0.00
2019-01-05T02:43:17.676Z,0.00
2019-01-05T02:44:38.538Z,0.00
2019-01-05T02:45:17.591Z,0.00
2019-01-05T02:46:17.390Z,0.00
2019-01-05T02:47:17.400Z,0.00
2019-01-05T02:48:17.228Z,0.00
2019-01-05T02:49:17.207Z,0.00
2019-01-05T02:50:38.026Z,0.00
2019-01-05T02:51:17.020Z,0.00
2019-01-05T02:52:16.884Z,0.00
2019-01-05T02:53:16.831Z,0.00
2019-01-05T02:54:16.719Z,0.00
2019-01-05T02:55:16.733Z,0.00
2019-01-05T02:56:37.534Z,0.00
2019-01-05T02:57:16.540Z,0.00
2019-01-05T02:58:16.388Z,0.00
2019-01-05T02:59:16.358Z,0.00
2019-01-05T03:00:16.218Z,0.00
2019-01-05T03:01:16.163Z,0.00
2019-01-05T03:02:37.027Z,0.00
2019-01-05T03:03:16.082Z,0.00
2019-01-05T03:04:15.889Z,0.00
2019-01-05T03:05:15.883Z,0.00
2019-01-05T03:06:15.713Z,0.00
2019-01-05T03:07:15.693Z,0.00
2019-01-05T03:08:36.525Z,0.00
2019-01-05T03:09:15.504Z,0.00
2019-01-05T03:10:15.375Z,0.00
2019-01-05T03:11:15.413Z,0.00
2019-01-05T03:12:15.212Z,0.00
2019-01-05T03:13:15.223Z,0.00
2019-01-05T03:14:36.023Z,0.00
2019-01-05T03:15:15.036Z,0.00
2019-01-05T03:16:14.879Z,0.00
2019-01-05T03:17:14.837Z,0.00
2019-01-05T03:18:14.715Z,0.00
2019-01-05T03:19:14.648Z,0.00
2019-01-05T03:20:35.523Z,0.00
2019-01-05T03:21:14.557Z,0.00
2019-01-05T03:22:14.376Z,0.00
2019-01-05T03:23:14.374Z,0.00
2019-01-05T03:24:14.210Z,0.00
2019-01-05T03:25:14.180Z,0.00
2019-01-05T03:26:35.028Z,0.00
2019-01-05T03:27:13.986Z,0.00
2019-01-05T03:28:13.870Z,0.00
2019-01-05T03:29:13.901Z,0.00
2019-01-05T03:30:13.712Z,0.00
2019-01-05T03:31:13.711Z,0.00
2019-01-05T03:32:34.517Z,0.00
2019-01-05T03:33:13.518Z,0.00
2019-01-05T03:34:13.373Z,0.00
2019-01-05T03:35:13.326Z,0.00
2019-01-05T03:36:13.209Z,0.00
2019-01-05T03:37:13.235Z,0.00
2019-01-05T03:38:34.018Z,0.00
2019-01-05T03:39:13.048Z,0.00
2019-01-05T03:40:12.869Z,0.00
2019-01-05T03:41:12.850Z,0.00
2019-01-05T03:42:12.701Z,0.00
2019-01-05T03:43:12.663Z,0.00
2019-01-05T03:44:33.513Z,0.00
2019-01-05T03:45:12.572Z,0.00
2019-01-05T03:46:12.368Z,0.00
2019-01-05T03:47:12.384Z,0.00
2019-01-05T03:48:12.205Z,0.00
2019-01-05T03:49:12.190Z,0.00
2019-01-05T03:50:33.007Z,0.00
2019-01-05T03:51:12.004Z,0.00
2019-01-05T03:52:11.866Z,0.00
2019-01-05T03:53:11.814Z,0.00
2019-01-05T03:54:11.699Z,0.00
2019-01-05T03:55:11.720Z,0.00
2019-01-05T03:56:32.514Z,0.00
2019-01-05T03:57:11.539Z,0.00
2019-01-05T03:58:11.371Z,0.00
2019-01-05T03:59:11.344Z,0.00
2019-01-05T04:00:11.197Z,0.00
2019-01-05T04:01:11.149Z,0.00
2019-01-05T04:02:32.010Z,0.00
2019-01-05T04:03:11.057Z,0.00
2019-01-05T04:04:10.863Z,0.00
2019-01-05T04:05:10.866Z,0.00
2019-01-05T04:06:10.690Z,0.00
2019-01-05T04:07:10.681Z,0.00
2019-01-05T04:08:31.507Z,0.00
2019-01-05T04:09:10.495Z,0.00
2019-01-05T04:10:10.361Z,0.00
2019-01-05T04:11:10.401Z,0.00
2019-01-05T04:12:10.192Z,0.00
2019-01-05T04:13:10.201Z,0.00
2019-01-05T04:14:31.000Z,0.00
2019-01-05T04:15:10.021Z,0.00
2019-01-05T04:16:09.864Z,0.00
2019-01-05T04:17:09.826Z,0.00
2019-01-05T04:18:09.694Z,0.00
2019-01-05T04:19:09.634Z,0.00
2019-01-05T04:20:31.385Z,0.00
2019-01-05T04:21:09.549Z,0.00
2019-01-05T04:22:09.353Z,0.00
2019-01-05T04:23:09.356Z,0.00
2019-01-05T04:24:09.190Z,0.00
2019-01-05T04:25:09.165Z,0.00
2019-01-05T04:26:29.998Z,0.00
2019-01-05T04:27:08.976Z,0.00
2019-01-05T04:28:08.862Z,0.00
2019-01-05T04:29:08.889Z,0.00
2019-01-05T04:30:08.689Z,0.00
2019-01-05T04:31:08.693Z,0.00
2019-01-05T04:32:29.501Z,0.00
2019-01-05T04:33:08.501Z,0.00
2019-01-05T04:34:08.351Z,0.00
2019-01-05T04:35:08.310Z,0.00
2019-01-05T04:36:08.187Z,0.00
2019-01-05T04:37:08.219Z,0.00
2019-01-05T04:38:28.998Z,0.00
2019-01-05T04:39:08.032Z,0.00
2019-01-05T04:40:07.852Z,0.00
2019-01-05T04:41:07.850Z,0.00
2019-01-05T04:42:07.682Z,0.00
2019-01-05T04:43:07.650Z,0.00
2019-01-05T04:44:28.492Z,0.00
2019-01-05T04:45:07.458Z,0.00
2019-01-05T04:46:07.348Z,0.00
2019-01-05T04:47:07.369Z,0.00
2019-01-05T04:48:07.177Z,0.00
2019-01-05T04:49:07.179Z,0.00
2019-01-05T04:50:27.993Z,0.00
2019-01-05T04:51:06.989Z,0.00
2019-01-05T04:52:06.846Z,0.00
2019-01-05T04:53:06.802Z,0.00
2019-01-05T04:54:06.675Z,0.00
2019-01-05T04:55:06.707Z,0.00
2019-01-05T04:56:27.488Z,0.00
2019-01-05T04:57:06.517Z,0.00
2019-01-05T04:58:06.341Z,0.00
2019-01-05T04:59:06.328Z,0.00
2019-01-05T05:00:06.176Z,0.00
2019-01-05T05:01:06.136Z,0.00
2019-01-05T05:02:26.982Z,0.00
2019-01-05T05:03:06.047Z,0.00
2019-01-05T05:04:05.843Z,0.00
2019-01-05T05:05:05.858Z,0.00
2019-01-05T05:06:05.674Z,0.00
2019-01-05T05:07:05.663Z,0.00
2019-01-05T05:08:26.481Z,0.00
2019-01-05T05:09:05.470Z,0.00
2019-01-05T05:10:05.340Z,0.00
2019-01-05T05:11:05.279Z,0.00
2019-01-05T05:12:05.174Z,0.00
2019-01-05T05:13:05.188Z,0.00
2019-01-05T05:14:25.977Z,0.00
2019-01-05T05:15:05.006Z,0.00
2019-01-05T05:16:04.837Z,0.00
2019-01-05T05:17:04.809Z,0.00
2019-01-05T05:18:04.674Z,0.00
2019-01-05T05:19:04.620Z,0.00
2019-01-05T05:20:25.482Z,0.00
2019-01-05T05:21:04.539Z,0.00
2019-01-05T05:22:04.329Z,0.00
2019-01-05T05:23:04.340Z,0.00
2019-01-05T05:24:04.160Z,0.00
2019-01-05T05:25:04.153Z,0.00
2019-01-05T05:26:24.970Z,0.00
2019-01-05T05:27:03.957Z,0.00
2019-01-05T05:28:03.827Z,0.00
2019-01-05T05:29:03.763Z,0.00
2019-01-05T05:30:03.655Z,0.00
2019-01-05T05:31:03.681Z,0.00
2019-01-05T05:32:24.471Z,0.00
2019-01-05T05:33:03.495Z,0.00
2019-01-05T05:34:03.322Z,0.00
2019-01-05T05:35:03.294Z,0.00
2019-01-05T05:36:03.158Z,0.00
2019-01-05T05:37:03.099Z,0.00
2019-01-05T05:38:23.975Z,0.00
2019-01-05T05:39:03.017Z,0.00
2019-01-05T05:40:02.822Z,0.00
2019-01-05T05:41:02.826Z,0.00
2019-01-05T05:42:02.654Z,0.00
2019-01-05T05:43:02.636Z,0.00
2019-01-05T05:44:23.470Z,0.00
2019-01-05T05:45:02.439Z,0.00
2019-01-05T05:46:02.312Z,0.00
2019-01-05T05:47:02.357Z,0.00
2019-01-05T05:48:02.154Z,0.00
2019-01-05T05:49:02.162Z,0.00
2019-01-05T05:50:22.959Z,0.00
2019-01-05T05:51:01.974Z,0.00
2019-01-05T05:52:01.817Z,0.00
2019-01-05T05:53:01.782Z,0.00
2019-01-05T05:54:01.652Z,0.00
2019-01-05T05:55:01.606Z,0.00
2019-01-05T05:56:22.458Z,0.00
2019-01-05T05:57:01.501Z,0.00
2019-01-05T05:58:01.313Z,0.00
2019-01-05T05:59:01.311Z,0.00
2019-01-05T06:00:01.148Z,0.00
2019-01-05T06:01:01.113Z,0.00
2019-01-05T06:02:21.953Z,0.00
2019-01-05T06:03:00.927Z,0.00
2019-01-05T06:04:00.807Z,0.00
2019-01-05T06:05:00.851Z,0.00
2019-01-05T06:06:00.644Z,0.00
2019-01-05T06:07:00.649Z,0.00
2019-01-05T06:08:21.448Z,0.00
2019-01-05T06:09:00.458Z,0.00
2019-01-05T06:10:00.299Z,0.00
2019-01-05T06:11:00.265Z,0.00
2019-01-05T06:12:00.135Z,0.00
2019-01-05T06:13:00.075Z,0.00
2019-01-05T06:14:20.945Z,0.00
2019-01-05T06:14:59.987Z,0.00
2019-01-05T06:15:59.797Z,0.00
2019-01-05T06:16:59.792Z,0.00
2019-01-05T06:17:59.631Z,0.00
2019-01-05T06:18:59.605Z,0.00
2019-01-05T06:20:20.448Z,0.00
2019-01-05T06:20:59.414Z,0.00
2019-01-05T06:21:59.304Z,0.00
2019-01-05T06:22:59.327Z,0.00
2019-01-05T06:23:59.131Z,0.00
2019-01-05T06:24:59.132Z,0.00
2019-01-05T06:26:19.938Z,0.00
2019-01-05T06:26:58.943Z,0.00
2019-01-05T06:27:58.793Z,0.00
2019-01-05T06:28:58.749Z,0.00
2019-01-05T06:29:58.623Z,0.00
2019-01-05T06:30:58.562Z,0.00
2019-01-05T06:32:19.441Z,0.00
2019-01-05T06:32:58.474Z,0.00
2019-01-05T06:33:58.289Z,0.00
2019-01-05T06:34:58.286Z,0.00
2019-01-05T06:35:58.122Z,0.00
2019-01-05T06:36:58.089Z,0.00
2019-01-05T06:38:18.938Z,0.00
2019-01-05T06:38:58.002Z,0.00
2019-01-05T06:39:57.788Z,0.00
2019-01-05T06:40:57.808Z,0.00
2019-01-05T06:41:57.614Z,0.00
2019-01-05T06:42:57.620Z,0.00
2019-01-05T06:44:18.427Z,0.00
2019-01-05T06:44:57.426Z,0.00
2019-01-05T06:45:57.278Z,0.00
2019-01-05T06:46:57.338Z,0.00
2019-01-05T06:47:57.112Z,0.00
2019-01-05T06:48:57.150Z,0.00
2019-01-05T06:50:17.922Z,0.00
2019-01-05T06:50:56.954Z,0.00
2019-01-05T06:51:56.778Z,0.00
2019-01-05T06:52:56.764Z,0.00
2019-01-05T06:53:56.604Z,4.00
2019-01-05T06:54:56.573Z,4.00
2019-01-05T06:56:17.423Z,4.00
2019-01-05T06:56:56.386Z,4.00
2019-01-05T06:57:56.346Z,0.00
2019-01-05T06:58:56.294Z,4.00
2019-01-05T06:59:56.104Z,4.00
2019-01-05T07:00:56.099Z,4.00
2019-01-05T07:02:16.933Z,8.00
2019-01-05T07:02:55.914Z,8.00
2019-01-05T07:03:55.767Z,4.00
2019-01-05T07:04:55.824Z,4.00
2019-01-05T07:05:55.598Z,4.00
2019-01-05T07:06:55.640Z,4.00
2019-01-05T07:08:16.416Z,8.00
2019-01-05T07:08:55.449Z,8.00
2019-01-05T07:09:55.268Z,8.00
2019-01-05T07:10:55.251Z,8.00
2019-01-05T07:11:55.096Z,12.00
2019-01-05T07:12:55.158Z,12.00
2019-01-05T07:14:15.902Z,16.00
2019-01-05T07:14:54.971Z,16.00
2019-01-05T07:15:54.762Z,16.00
2019-01-05T07:16:54.776Z,20.00
2019-01-05T07:17:54.596Z,20.00
2019-01-05T07:18:54.587Z,16.00
2019-01-05T07:20:15.411Z,20.00
2019-01-05T07:20:54.398Z,20.00
2019-01-05T07:21:54.256Z,16.00
2019-01-05T07:22:54.316Z,16.00
2019-01-05T07:23:54.085Z,16.00
2019-01-05T07:24:54.116Z,20.00
2019-01-05T07:26:14.896Z,20.00
2019-01-05T07:26:53.936Z,20.00
2019-01-05T07:27:53.756Z,24.00
2019-01-05T07:28:53.672Z,24.00
2019-01-05T07:29:53.580Z,28.00
2019-01-05T07:30:53.660Z,28.00
2019-01-05T07:32:14.396Z,32.00
2019-01-05T07:32:53.460Z,36.00
2019-01-05T07:33:53.256Z,36.00
2019-01-05T07:34:53.272Z,40.00
2019-01-05T07:35:53.079Z,36.00
2019-01-05T07:36:53.075Z,40.00
2019-01-05T07:38:13.889Z,40.00
2019-01-05T07:38:52.986Z,40.00
2019-01-05T07:39:52.758Z,48.00
2019-01-05T07:40:52.801Z,60.00
2019-01-05T07:41:52.577Z,64.00
2019-01-05T07:42:52.609Z,76.00
2019-01-05T07:44:13.394Z,80.00
2019-01-05T07:44:52.417Z,80.00
2019-01-05T07:45:52.241Z,80.00
2019-01-05T07:46:52.226Z,76.00
2019-01-05T07:47:52.076Z,84.00
2019-01-05T07:48:52.134Z,84.00
2019-01-05T07:50:12.883Z,92.00
2019-01-05T07:50:51.942Z,96.00
2019-01-05T07:51:51.743Z,104.00
2019-01-05T07:52:51.753Z,116.00
2019-01-05T07:53:51.568Z,112.00
2019-01-05T07:54:51.560Z,128.00
2019-01-05T07:56:12.385Z,140.00
2019-01-05T07:56:51.489Z,128.00
2019-01-05T07:57:51.243Z,128.00
2019-01-05T07:58:51.279Z,128.00
2019-01-05T07:59:51.091Z,124.00
2019-01-05T08:00:52.282Z,132.00
2019-01-05T08:02:11.883Z,128.00
2019-01-05T08:02:50.898Z,120.00
2019-01-05T08:03:50.732Z,132.00
2019-01-05T08:04:50.809Z,132.00
2019-01-05T08:05:50.571Z,140.00
2019-01-05T08:06:50.615Z,144.00
2019-01-05T08:08:11.371Z,144.00
2019-01-05T08:08:50.429Z,128.00
2019-01-05T08:09:50.226Z,132.00
2019-01-05T08:10:50.238Z,140.00
2019-01-05T08:11:50.064Z,136.00
2019-01-05T08:12:50.151Z,160.00
2019-01-05T08:14:10.874Z,192.00
2019-01-05T08:14:49.955Z,228.00
2019-01-05T08:15:49.730Z,268.00
2019-01-05T08:16:49.761Z,280.00
2019-01-05T08:17:49.566Z,336.00
2019-01-05T08:18:49.581Z,344.00
2019-01-05T08:20:10.367Z,328.00
2019-01-05T08:20:49.389Z,312.00
2019-01-05T08:21:49.227Z,260.00
2019-01-05T08:22:49.294Z,248.00
2019-01-05T08:23:49.048Z,232.00
2019-01-05T08:24:49.106Z,208.00
2019-01-05T08:26:09.864Z,196.00
2019-01-05T08:26:48.911Z,188.00
2019-01-05T08:27:48.714Z,184.00
2019-01-05T08:28:48.725Z,204.00
2019-01-05T08:29:48.547Z,196.00
2019-01-05T08:30:48.642Z,180.00
2019-01-05T08:32:09.360Z,176.00
2019-01-05T08:32:48.442Z,164.00
2019-01-05T08:33:48.212Z,184.00
2019-01-05T08:34:48.253Z,176.00
2019-01-05T08:35:48.047Z,180.00
2019-01-05T08:36:48.065Z,176.00
2019-01-05T08:38:08.864Z,164.00
2019-01-05T08:38:47.980Z,156.00
2019-01-05T08:39:47.710Z,152.00
2019-01-05T08:40:47.787Z,140.00
2019-01-05T08:41:47.541Z,148.00
2019-01-05T08:42:47.591Z,160.00
2019-01-05T08:44:08.362Z,180.00
2019-01-05T08:44:47.401Z,208.00
2019-01-05T08:45:47.205Z,200.00
2019-01-05T08:46:47.214Z,184.00
2019-01-05T08:47:47.050Z,188.00
2019-01-05T08:48:47.119Z,208.00
2019-01-05T08:50:07.854Z,252.00
2019-01-05T08:50:46.788Z,312.00
2019-01-05T08:51:46.917Z,340.00
2019-01-05T08:52:46.631Z,328.00
2019-01-05T08:53:46.644Z,312.00
2019-01-05T08:54:46.459Z,276.00
2019-01-05T08:56:07.689Z,240.00
2019-01-05T08:56:46.500Z,236.00
2019-01-05T08:57:46.207Z,228.00
2019-01-05T08:58:46.125Z,228.00
2019-01-05T08:59:47.331Z,232.00
2019-01-05T09:00:46.425Z,240.00
2019-01-05T09:02:06.854Z,240.00
2019-01-05T09:02:45.792Z,260.00
2019-01-05T09:03:45.893Z,256.00
2019-01-05T09:04:45.620Z,272.00
2019-01-05T09:05:45.703Z,336.00
2019-01-05T09:06:45.456Z,372.00
2019-01-05T09:08:06.353Z,408.00
2019-01-05T09:08:45.415Z,428.00
2019-01-05T09:09:45.209Z,392.00
2019-01-05T09:10:45.116Z,332.00
2019-01-05T09:11:45.035Z,316.00
2019-01-05T09:12:45.135Z,284.00
2019-01-05T09:14:05.843Z,312.00
2019-01-05T09:14:44.789Z,328.00
2019-01-05T09:15:44.849Z,304.00
2019-01-05T09:16:44.628Z,276.00
2019-01-05T09:17:44.530Z,260.00
2019-01-05T09:18:44.563Z,292.00
2019-01-05T09:20:05.339Z,364.00
2019-01-05T09:20:44.545Z,384.00
2019-01-05T09:21:44.200Z,468.00
2019-01-05T09:22:44.115Z,504.00
2019-01-05T09:23:44.032Z,476.00
2019-01-05T09:24:44.212Z,396.00
2019-01-05T09:26:04.993Z,336.00
2019-01-05T09:26:43.784Z,272.00
2019-01-05T09:27:44.995Z,252.00
2019-01-05T09:28:43.710Z,252.00
2019-01-05T09:29:43.523Z,264.00
2019-01-05T09:30:43.442Z,256.00
2019-01-05T09:32:04.341Z,276.00
2019-01-05T09:32:43.429Z,292.00
2019-01-05T09:33:43.207Z,336.00
2019-01-05T09:34:43.240Z,416.00
2019-01-05T09:35:43.018Z,464.00
2019-01-05T09:36:42.950Z,368.00
2019-01-05T09:38:03.838Z,268.00
2019-01-05T09:38:43.036Z,228.00
2019-01-05T09:39:42.691Z,240.00
2019-01-05T09:40:42.619Z,264.00
2019-01-05T09:41:42.534Z,308.00
2019-01-05T09:42:42.441Z,424.00
2019-01-05T09:44:03.474Z,392.00
2019-01-05T09:44:43.053Z,364.00
2019-01-05T09:45:42.436Z,316.00
2019-01-05T09:46:42.098Z,316.00
2019-01-05T09:47:42.331Z,288.00
2019-01-05T09:48:41.929Z,320.00
2019-01-05T09:50:03.191Z,416.00
2019-01-05T09:50:41.759Z,544.00
2019-01-05T09:51:42.078Z,556.00
2019-01-05T09:52:41.598Z,512.00
2019-01-05T09:53:41.633Z,456.00
2019-01-05T09:54:41.432Z,504.00
2019-01-05T09:56:02.367Z,520.00
2019-01-05T09:56:42.088Z,532.00
2019-01-05T09:57:41.181Z,612.00
2019-01-05T09:58:41.101Z,672.00
2019-01-05T09:59:41.023Z,628.00
2019-01-05T10:00:40.938Z,668.00
2019-01-05T10:02:01.962Z,700.00
2019-01-05T10:02:40.763Z,640.00
2019-01-05T10:03:40.682Z,596.00
2019-01-05T10:04:40.791Z,456.00
2019-01-05T10:05:40.510Z,412.00
2019-01-05T10:06:40.592Z,388.00
2019-01-05T10:08:01.319Z,432.00
2019-01-05T10:08:40.401Z,488.00
2019-01-05T10:09:40.178Z,520.00
2019-01-05T10:10:40.211Z,600.00
2019-01-05T10:11:40.018Z,644.00
2019-01-05T10:12:40.116Z,536.00
2019-01-05T10:14:00.923Z,424.00
2019-01-05T10:14:39.933Z,348.00
2019-01-05T10:15:39.672Z,304.00
2019-01-05T10:16:40.035Z,272.00
2019-01-05T10:17:40.343Z,300.00
2019-01-05T10:18:39.418Z,328.00
2019-01-05T10:20:00.354Z,408.00
2019-01-05T10:20:39.266Z,436.00
2019-01-05T10:21:39.177Z,416.00
2019-01-05T10:22:39.328Z,468.00
2019-01-05T10:23:39.018Z,516.00
2019-01-05T10:24:38.929Z,544.00
2019-01-05T10:25:59.883Z,556.00
2019-01-05T10:26:38.770Z,504.00
2019-01-05T10:27:38.680Z,500.00
2019-01-05T10:28:38.596Z,492.00
2019-01-05T10:29:38.514Z,412.00
2019-01-05T10:30:38.431Z,416.00
2019-01-05T10:31:59.507Z,456.00
2019-01-05T10:32:38.269Z,440.00
2019-01-05T10:33:38.184Z,428.00
2019-01-05T10:34:38.144Z,388.00
2019-01-05T10:35:38.067Z,348.00
2019-01-05T10:36:37.929Z,296.00
2019-01-05T10:37:59.135Z,316.00
2019-01-05T10:38:37.765Z,300.00
2019-01-05T10:39:37.681Z,264.00
2019-01-05T10:40:37.605Z,244.00
2019-01-05T10:41:37.513Z,252.00
2019-01-05T10:42:37.430Z,256.00
2019-01-05T10:43:58.466Z,308.00
2019-01-05T10:44:37.262Z,360.00
2019-01-05T10:45:37.179Z,416.00
2019-01-05T10:46:37.100Z,516.00
2019-01-05T10:47:37.013Z,536.00
2019-01-05T10:48:37.100Z,504.00
2019-01-05T10:49:57.835Z,432.00
2019-01-05T10:50:36.768Z,408.00
2019-01-05T10:51:36.806Z,376.00
2019-01-05T10:52:36.589Z,340.00
2019-01-05T10:53:36.721Z,404.00
2019-01-05T10:54:36.418Z,416.00
2019-01-05T10:55:57.326Z,348.00
2019-01-05T10:56:36.430Z,352.00
2019-01-05T10:57:36.167Z,340.00
2019-01-05T10:58:36.236Z,308.00
2019-01-05T10:59:36.010Z,268.00
2019-01-05T11:00:36.052Z,252.00
2019-01-05T11:01:56.828Z,276.00
2019-01-05T11:02:35.960Z,284.00
2019-01-05T11:03:35.667Z,284.00
2019-01-05T11:04:35.768Z,284.00
2019-01-05T11:05:35.495Z,328.00
2019-01-05T11:06:35.576Z,356.00
2019-01-05T11:07:56.315Z,376.00
2019-01-05T11:08:35.257Z,400.00
2019-01-05T11:09:35.178Z,404.00
2019-01-05T11:10:35.295Z,416.00
2019-01-05T11:11:35.003Z,376.00
2019-01-05T11:12:35.105Z,420.00
2019-01-05T11:13:55.819Z,408.00
2019-01-05T11:14:34.761Z,408.00
2019-01-05T11:15:34.821Z,372.00
2019-01-05T11:16:34.593Z,352.00
2019-01-05T11:17:34.632Z,348.00
2019-01-05T11:18:34.413Z,324.00
2019-01-05T11:19:55.538Z,292.00
2019-01-05T11:20:35.903Z,276.00
2019-01-05T11:21:34.180Z,276.00
2019-01-05T11:22:34.094Z,260.00
2019-01-05T11:23:34.174Z,248.00
2019-01-05T11:24:33.917Z,248.00
2019-01-05T11:25:54.834Z,268.00
2019-01-05T11:26:33.764Z,260.00
2019-01-05T11:27:33.677Z,260.00
2019-01-05T11:28:33.587Z,260.00
2019-01-05T11:29:33.688Z,248.00
2019-01-05T11:30:33.429Z,268.00
2019-01-05T11:31:54.314Z,272.00
2019-01-05T11:32:33.256Z,272.00
2019-01-05T11:33:33.305Z,288.00
2019-01-05T11:34:33.092Z,296.00
2019-01-05T11:35:33.010Z,292.00
2019-01-05T11:36:32.923Z,328.00
2019-01-05T11:37:53.813Z,320.00
2019-01-05T11:38:32.755Z,324.00
2019-01-05T11:39:32.684Z,340.00
2019-01-05T11:40:32.642Z,340.00
2019-01-05T11:41:32.509Z,348.00
2019-01-05T11:42:32.446Z,304.00
2019-01-05T11:43:53.321Z,320.00
2019-01-05T11:44:32.498Z,288.00
2019-01-05T11:45:32.223Z,268.00
2019-01-05T11:46:32.084Z,252.00
2019-01-05T11:47:32.002Z,276.00
2019-01-05T11:48:31.918Z,272.00
2019-01-05T11:49:52.822Z,268.00
2019-01-05T11:50:31.783Z,308.00
2019-01-05T11:51:31.670Z,316.00
2019-01-05T11:52:31.595Z,308.00
2019-01-05T11:53:31.512Z,304.00
2019-01-05T11:54:31.504Z,304.00
2019-01-05T11:55:52.313Z,308.00
2019-01-05T11:56:31.262Z,296.00
2019-01-05T11:57:31.216Z,272.00
2019-01-05T11:58:31.110Z,272.00
2019-01-05T11:59:31.054Z,252.00
2019-01-05T12:00:30.951Z,272.00
2019-01-05T12:01:51.814Z,268.00
2019-01-05T12:02:30.840Z,268.00
2019-01-05T12:03:30.916Z,240.00
2019-01-05T12:04:30.590Z,272.00
2019-01-05T12:05:30.535Z,252.00
2019-01-05T12:06:30.786Z,264.00
2019-01-05T12:07:51.359Z,276.00
2019-01-05T12:08:30.274Z,260.00
2019-01-05T12:09:30.160Z,240.00
2019-01-05T12:10:31.172Z,236.00
2019-01-05T12:11:30.004Z,252.00
2019-01-05T12:12:30.104Z,260.00
2019-01-05T12:13:50.818Z,260.00
2019-01-05T12:14:29.762Z,268.00
2019-01-05T12:15:29.836Z,244.00
2019-01-05T12:16:29.587Z,260.00
2019-01-05T12:17:29.730Z,256.00
2019-01-05T12:18:29.418Z,268.00
2019-01-05T12:19:50.414Z,276.00
2019-01-05T12:20:29.260Z,280.00
2019-01-05T12:21:29.171Z,252.00
2019-01-05T12:22:29.140Z,240.00
2019-01-05T12:23:28.996Z,260.00
2019-01-05T12:24:29.050Z,256.00
2019-01-05T12:25:49.809Z,256.00
2019-01-05T12:26:28.858Z,248.00
2019-01-05T12:27:28.665Z,232.00
2019-01-05T12:28:28.670Z,216.00
2019-01-05T12:29:28.502Z,208.00
2019-01-05T12:30:28.474Z,196.00
2019-01-05T12:31:49.324Z,180.00
2019-01-05T12:32:28.388Z,180.00
2019-01-05T12:33:28.162Z,196.00
2019-01-05T12:34:28.194Z,200.00
2019-01-05T12:35:28.008Z,196.00
2019-01-05T12:36:28.006Z,204.00
2019-01-05T12:37:48.823Z,208.00
2019-01-05T12:38:27.816Z,204.00
2019-01-05T12:39:27.669Z,208.00
2019-01-05T12:40:27.594Z,220.00
2019-01-05T12:41:27.634Z,236.00
2019-01-05T12:42:27.414Z,208.00
2019-01-05T12:43:48.431Z,184.00
2019-01-05T12:44:27.247Z,180.00
2019-01-05T12:45:27.168Z,192.00
2019-01-05T12:46:27.083Z,200.00
2019-01-05T12:47:26.999Z,184.00
2019-01-05T12:48:26.963Z,196.00
2019-01-05T12:49:47.849Z,208.00
2019-01-05T12:50:26.878Z,204.00
2019-01-05T12:51:26.669Z,236.00
2019-01-05T12:52:26.771Z,224.00
2019-01-05T12:53:26.504Z,204.00
2019-01-05T12:54:26.494Z,212.00
2019-01-05T12:55:47.381Z,216.00